Time,TemperatureF,DewpointF,PressureIn,WindDirection,WindDirectionDegrees,WindSpeedMPH,WindSpeedGustMPH,Humidity,HourlyPrecipIn,Conditions,Clouds,dailyrainin,SoftwareType,DateUTC
2013-02-21 00:01:00,18.0,16.0,-100.00,NNW,345,5.0,6.0,93,-99.99,,,0.00,,2013-02-21 07:01:00,
2013-02-21 00:11:00,17.0,15.0,-100.00,NNW,340,6.0,8.0,92,-99.99,,,0.00,,2013-02-21 07:11:00,
2013-02-21 00:21:00,17.0,15.0,-100.00,NNW,340,6.0,8.0,92,-99.99,,,0.00,,2013-02-21 07:21:00,
2013-02-21 00:31:00,17.0,15.0,-100.00,NNW,340,6.0,8.0,92,-99.99,,,0.00,,2013-02-21 07:31:00,
2013-02-21 00:52:00,16.0,14.0,-100.00,North,350,7.0,8.0,92,-99.99,,,0.00,,2013-02-21 07:52:00,
2013-02-21 01:01:00,16.0,14.0,-100.00,North,350,7.0,8.0,92,-99.99,,,0.00,,2013-02-21 08:01:00,
2013-02-21 01:11:00,16.0,14.0,-100.00,North,0,8.0,9.0,92,-99.99,,,0.00,,2013-02-21 08:11:00,
2013-02-21 01:21:00,16.0,14.0,-100.00,North,0,8.0,9.0,92,-99.99,,,0.00,,2013-02-21 08:21:00,
2013-02-21 01:31:00,16.0,14.0,-100.00,North,0,8.0,9.0,92,-99.99,,,0.00,,2013-02-21 08:31:00,
2013-02-21 01:52:00,15.0,13.0,-100.00,North,0,7.0,9.0,91,-99.99,,,0.00,,2013-02-21 08:52:00,
2013-02-21 02:01:00,15.0,13.0,-100.00,North,0,7.0,9.0,91,-99.99,,,0.00,,2013-02-21 09:01:00,
2013-02-21 02:11:00,15.0,13.0,-100.00,North,10,6.0,7.0,91,-99.99,,,0.00,,2013-02-21 09:11:00,
2013-02-21 02:22:00,15.0,13.0,-100.00,North,10,6.0,7.0,91,-99.99,,,0.00,,2013-02-21 09:22:00,
2013-02-21 02:31:00,15.0,13.0,-100.00,North,10,6.0,7.0,91,-99.99,,,0.00,,2013-02-21 09:31:00,
2013-02-21 02:52:00,16.0,14.0,-100.00,North,0,3.0,5.0,91,-99.99,,,0.00,,2013-02-21 09:52:00,
2013-02-21 03:01:00,16.0,14.0,-100.00,North,0,3.0,5.0,91,-99.99,,,0.00,,2013-02-21 10:01:00,
2013-02-21 03:11:00,16.0,13.0,-100.00,North,0,3.0,4.0,91,-99.99,,,0.00,,2013-02-21 10:11:00,
2013-02-21 03:21:00,16.0,13.0,-100.00,North,0,3.0,4.0,91,-99.99,,,0.00,,2013-02-21 10:21:00,
2013-02-21 03:31:00,16.0,13.0,-100.00,North,0,3.0,4.0,91,-99.99,,,0.00,,2013-02-21 10:31:00,
2013-02-21 03:51:00,15.0,13.0,-100.00,North,0,4.0,6.0,91,-99.99,,,0.00,,2013-02-21 10:51:00,
2013-02-21 04:01:00,15.0,13.0,-100.00,North,0,4.0,6.0,91,-99.99,,,0.00,,2013-02-21 11:01:00,
2013-02-21 04:11:00,15.0,13.0,-100.00,North,0,6.0,7.0,91,-99.99,,,0.00,,2013-02-21 11:11:00,
2013-02-21 04:21:00,15.0,13.0,-100.00,North,0,6.0,7.0,91,-99.99,,,0.00,,2013-02-21 11:21:00,
2013-02-21 04:31:00,15.0,13.0,-100.00,North,0,6.0,7.0,91,-99.99,,,0.00,,2013-02-21 11:31:00,
2013-02-21 04:52:00,15.0,13.0,-100.00,North,0,6.0,8.0,91,-99.99,,,0.00,,2013-02-21 11:52:00,
2013-02-21 05:01:00,15.0,13.0,-100.00,North,0,6.0,8.0,91,-99.99,,,0.00,,2013-02-21 12:01:00,
2013-02-21 05:11:00,16.0,14.0,-100.00,NNE,20,6.0,8.0,92,-99.99,,,0.00,,2013-02-21 12:11:00,
2013-02-21 05:21:00,16.0,14.0,-100.00,NNE,20,6.0,8.0,92,-99.99,,,0.00,,2013-02-21 12:21:00,
2013-02-21 05:32:00,16.0,14.0,-100.00,NNE,20,6.0,8.0,92,-99.99,,,0.00,,2013-02-21 12:32:00,
2013-02-21 05:52:00,15.0,13.0,-100.00,North,350,3.0,7.0,91,-99.99,,,0.00,,2013-02-21 12:52:00,
2013-02-21 06:01:00,15.0,13.0,-100.00,North,350,3.0,7.0,91,-99.99,,,0.00,,2013-02-21 13:01:00,
2013-02-21 06:12:00,14.0,11.0,-100.00,NW,325,0.0,1.0,90,-99.99,,,0.00,,2013-02-21 13:12:00,
2013-02-21 06:22:00,14.0,11.0,-100.00,NW,325,0.0,1.0,90,-99.99,,,0.00,,2013-02-21 13:22:00,
2013-02-21 06:32:00,14.0,11.0,-100.00,NW,325,0.0,1.0,90,-99.99,,,0.00,,2013-02-21 13:32:00,
2013-02-21 06:52:00,14.0,12.0,-100.00,North,355,4.0,4.0,91,-99.99,,,0.00,,2013-02-21 13:52:00,
2013-02-21 07:02:00,14.0,12.0,-100.00,North,355,4.0,4.0,91,-99.99,,,0.00,,2013-02-21 14:02:00,
2013-02-21 07:11:00,14.0,12.0,-100.00,North,350,6.0,6.0,91,-99.99,,,0.00,,2013-02-21 14:11:00,
2013-02-21 07:21:00,14.0,12.0,-100.00,North,350,6.0,6.0,91,-99.99,,,0.00,,2013-02-21 14:21:00,
2013-02-21 07:32:00,14.0,12.0,-100.00,North,350,6.0,6.0,91,-99.99,,,0.00,,2013-02-21 14:32:00,
2013-02-21 07:52:00,14.0,12.0,-100.00,North,0,6.0,7.0,90,-99.99,,,0.00,,2013-02-21 14:52:00,
2013-02-21 08:01:00,14.0,12.0,-100.00,North,0,6.0,7.0,90,-99.99,,,0.00,,2013-02-21 15:01:00,
2013-02-21 08:12:00,16.0,13.0,-100.00,North,5,4.0,5.0,91,-99.99,,,0.00,,2013-02-21 15:12:00,
2013-02-21 08:21:00,16.0,13.0,-100.00,North,5,4.0,5.0,91,-99.99,,,0.00,,2013-02-21 15:21:00,
2013-02-21 08:31:00,16.0,13.0,-100.00,North,5,4.0,5.0,91,-99.99,,,0.00,,2013-02-21 15:31:00,
2013-02-21 08:52:00,16.0,13.0,-100.00,North,10,3.0,6.0,87,-99.99,,,0.00,,2013-02-21 15:52:00,
2013-02-21 09:01:00,16.0,13.0,-100.00,North,10,3.0,6.0,87,-99.99,,,0.00,,2013-02-21 16:01:00,
2013-02-21 09:12:00,21.0,14.0,-100.00,WNW,290,1.0,1.0,73,-99.99,,,0.00,,2013-02-21 16:12:00,
2013-02-21 09:21:00,21.0,14.0,-100.00,WNW,290,1.0,1.0,73,-99.99,,,0.00,,2013-02-21 16:21:00,
2013-02-21 09:31:00,21.0,14.0,-100.00,WNW,290,1.0,1.0,73,-99.99,,,0.00,,2013-02-21 16:31:00,
2013-02-21 09:52:00,21.0,13.0,-100.00,NW,310,0.0,1.0,71,-99.99,,,0.00,,2013-02-21 16:52:00,
2013-02-21 10:01:00,21.0,13.0,-100.00,NW,310,0.0,1.0,71,-99.99,,,0.00,,2013-02-21 17:01:00,
2013-02-21 10:11:00,21.0,14.0,-100.00,WNW,300,1.0,2.0,73,-99.99,,,0.00,,2013-02-21 17:11:00,
2013-02-21 10:21:00,21.0,14.0,-100.00,WNW,300,1.0,2.0,73,-99.99,,,0.00,,2013-02-21 17:21:00,
2013-02-21 10:32:00,21.0,14.0,-100.00,WNW,300,1.0,2.0,73,-99.99,,,0.00,,2013-02-21 17:32:00,
2013-02-21 10:52:00,25.0,14.0,-100.00,North,-999,0.0,0.0,61,-99.99,,,0.00,,2013-02-21 17:52:00,
2013-02-21 11:01:00,25.0,14.0,-100.00,North,-999,0.0,0.0,61,-99.99,,,0.00,,2013-02-21 18:01:00,
2013-02-21 11:11:00,23.0,15.0,-100.00,North,5,3.0,5.0,70,-99.99,,,0.00,,2013-02-21 18:11:00,
2013-02-21 11:22:00,23.0,15.0,-100.00,North,5,3.0,5.0,70,-99.99,,,0.00,,2013-02-21 18:22:00,
2013-02-21 11:31:00,23.0,15.0,-100.00,North,5,3.0,5.0,70,-99.99,,,0.00,,2013-02-21 18:31:00,
2013-02-21 11:52:00,23.0,16.0,-100.00,NE,55,3.0,4.0,71,-99.99,,,0.00,,2013-02-21 18:52:00,
2013-02-21 12:01:00,23.0,16.0,-100.00,NE,55,3.0,4.0,71,-99.99,,,0.00,,2013-02-21 19:01:00,
2013-02-21 12:11:00,25.0,16.0,-100.00,NE,45,4.0,5.0,67,-99.99,,,0.00,,2013-02-21 19:11:00,
2013-02-21 12:21:00,25.0,16.0,-100.00,NE,45,4.0,5.0,67,-99.99,,,0.00,,2013-02-21 19:21:00,
2013-02-21 12:31:00,25.0,16.0,-100.00,NE,45,4.0,5.0,67,-99.99,,,0.00,,2013-02-21 19:31:00,
2013-02-21 12:52:00,25.0,17.0,-100.00,WSW,240,3.0,4.0,70,-99.99,,,0.00,,2013-02-21 19:52:00,
2013-02-21 13:01:00,25.0,17.0,-100.00,WSW,240,3.0,4.0,70,-99.99,,,0.00,,2013-02-21 20:01:00,
2013-02-21 13:11:00,25.0,17.0,-100.00,West,260,2.0,5.0,70,-99.99,,,0.00,,2013-02-21 20:11:00,
2013-02-21 13:21:00,25.0,17.0,-100.00,West,260,2.0,5.0,70,-99.99,,,0.00,,2013-02-21 20:21:00,
2013-02-21 13:31:00,25.0,17.0,-100.00,West,260,2.0,5.0,70,-99.99,,,0.00,,2013-02-21 20:31:00,
2013-02-21 13:53:00,25.0,17.0,-100.00,West,275,3.0,4.0,71,-99.99,,,0.00,,2013-02-21 20:53:00,
2013-02-21 14:02:00,25.0,17.0,-100.00,West,275,3.0,4.0,71,-99.99,,,0.00,,2013-02-21 21:02:00,
2013-02-21 14:11:00,25.0,18.0,-100.00,NW,320,4.0,6.0,72,-99.99,,,0.00,,2013-02-21 21:11:00,
2013-02-21 14:21:00,25.0,18.0,-100.00,NW,320,4.0,6.0,72,-99.99,,,0.00,,2013-02-21 21:21:00,
2013-02-21 14:31:00,25.0,18.0,-100.00,NW,320,4.0,6.0,72,-99.99,,,0.00,,2013-02-21 21:31:00,
2013-02-21 14:52:00,24.0,18.0,-100.00,NNW,335,4.0,7.0,75,-99.99,,,0.00,,2013-02-21 21:52:00,
2013-02-21 15:01:00,24.0,18.0,-100.00,NNW,335,4.0,7.0,75,-99.99,,,0.00,,2013-02-21 22:01:00,
2013-02-21 15:11:00,24.0,18.0,-100.00,North,355,4.0,6.0,76,-99.99,,,0.00,,2013-02-21 22:11:00,
2013-02-21 15:21:00,24.0,18.0,-100.00,North,355,4.0,6.0,76,-99.99,,,0.00,,2013-02-21 22:21:00,
2013-02-21 15:31:00,24.0,18.0,-100.00,North,355,4.0,6.0,76,-99.99,,,0.00,,2013-02-21 22:31:00,
2013-02-21 15:52:00,25.0,19.0,-100.00,NW,315,4.0,6.0,75,-99.99,,,0.00,,2013-02-21 22:52:00,
2013-02-21 16:01:00,25.0,19.0,-100.00,NW,315,4.0,6.0,75,-99.99,,,0.00,,2013-02-21 23:01:00,
2013-02-21 16:11:00,27.0,19.0,-100.00,WNW,290,3.0,4.0,71,-99.99,,,0.00,,2013-02-21 23:11:00,
2013-02-21 16:21:00,27.0,19.0,-100.00,WNW,290,3.0,4.0,71,-99.99,,,0.00,,2013-02-21 23:21:00,
2013-02-21 16:31:00,27.0,19.0,-100.00,WNW,290,3.0,4.0,71,-99.99,,,0.00,,2013-02-21 23:31:00,
2013-02-21 16:52:00,26.0,19.0,-100.00,North,0,1.0,4.0,72,-99.99,,,0.00,,2013-02-21 23:52:00,
2013-02-21 17:01:00,26.0,19.0,-100.00,North,0,1.0,4.0,72,-99.99,,,0.00,,2013-02-22 00:01:00,
2013-02-21 17:11:00,26.0,19.0,-100.00,North,350,3.0,3.0,76,-99.99,,,0.00,,2013-02-22 00:11:00,
2013-02-21 17:21:00,26.0,19.0,-100.00,North,350,3.0,3.0,76,-99.99,,,0.00,,2013-02-22 00:21:00,
2013-02-21 17:31:00,26.0,19.0,-100.00,North,350,3.0,3.0,76,-99.99,,,0.00,,2013-02-22 00:31:00,
2013-02-21 17:52:00,25.0,19.0,-100.00,North,5,3.0,3.0,80,-99.99,,,0.00,,2013-02-22 00:52:00,
2013-02-21 18:01:00,25.0,19.0,-100.00,North,5,3.0,3.0,80,-99.99,,,0.00,,2013-02-22 01:01:00,
2013-02-21 18:11:00,23.0,19.0,-100.00,ENE,70,2.0,3.0,83,-99.99,,,-99.99,,2013-02-22 01:11:00,
2013-02-21 18:21:00,23.0,19.0,-100.00,ENE,70,2.0,3.0,83,-99.99,,,-99.99,,2013-02-22 01:21:00,
2013-02-21 18:32:00,23.0,19.0,-100.00,ENE,70,2.0,3.0,83,-99.99,,,-99.99,,2013-02-22 01:32:00,
2013-02-21 18:52:00,22.0,18.0,-100.00,SSE,150,2.0,3.0,86,-99.99,,,0.00,,2013-02-22 01:52:00,
2013-02-21 19:02:00,22.0,18.0,-100.00,SSE,150,2.0,3.0,86,-99.99,,,0.00,,2013-02-22 02:02:00,
2013-02-21 19:11:00,21.0,18.0,-100.00,SE,135,3.0,5.0,87,-99.99,,,0.00,,2013-02-22 02:11:00,
2013-02-21 19:21:00,21.0,18.0,-100.00,SE,135,3.0,5.0,87,-99.99,,,0.00,,2013-02-22 02:21:00,
2013-02-21 19:31:00,21.0,18.0,-100.00,SE,135,3.0,5.0,87,-99.99,,,0.00,,2013-02-22 02:31:00,
2013-02-21 19:52:00,21.0,18.0,-100.00,South,170,1.0,2.0,88,-99.99,,,0.00,,2013-02-22 02:52:00,
2013-02-21 20:01:00,21.0,18.0,-100.00,South,170,1.0,2.0,88,-99.99,,,0.00,,2013-02-22 03:01:00,
2013-02-21 20:11:00,22.0,19.0,-100.00,SE,145,3.0,4.0,89,-99.99,,,0.00,,2013-02-22 03:11:00,
2013-02-21 20:21:00,22.0,19.0,-100.00,SE,145,3.0,4.0,89,-99.99,,,0.00,,2013-02-22 03:21:00,
2013-02-21 20:31:00,22.0,19.0,-100.00,SE,145,3.0,4.0,89,-99.99,,,0.00,,2013-02-22 03:31:00,
2013-02-21 20:52:00,21.0,18.0,-100.00,SE,135,4.0,6.0,89,-99.99,,,0.00,,2013-02-22 03:52:00,
2013-02-21 21:01:00,21.0,18.0,-100.00,SE,135,4.0,6.0,89,-99.99,,,0.00,,2013-02-22 04:01:00,
2013-02-21 21:11:00,21.0,19.0,-100.00,SSE,150,8.0,8.0,91,-99.99,,,0.00,,2013-02-22 04:11:00,
2013-02-21 21:21:00,21.0,19.0,-100.00,SSE,150,8.0,8.0,91,-99.99,,,0.00,,2013-02-22 04:21:00,
2013-02-21 21:32:00,21.0,19.0,-100.00,SSE,150,8.0,8.0,91,-99.99,,,0.00,,2013-02-22 04:32:00,
2013-02-21 21:52:00,21.0,19.0,-100.00,SSE,150,2.0,6.0,91,-99.99,,,0.00,,2013-02-22 04:52:00,
2013-02-21 22:01:00,21.0,19.0,-100.00,SSE,150,2.0,6.0,91,-99.99,,,0.00,,2013-02-22 05:01:00,
2013-02-21 22:12:00,22.0,20.0,-100.00,South,180,3.0,4.0,90,-99.99,,,0.00,,2013-02-22 05:12:00,
2013-02-21 22:22:00,22.0,20.0,-100.00,South,180,3.0,4.0,90,-99.99,,,0.00,,2013-02-22 05:22:00,
2013-02-21 22:32:00,22.0,20.0,-100.00,South,180,3.0,4.0,90,-99.99,,,0.00,,2013-02-22 05:32:00,
2013-02-21 22:52:00,22.0,18.0,-100.00,South,185,0.0,1.0,84,-99.99,,,0.00,,2013-02-22 05:52:00,
2013-02-21 23:01:00,22.0,18.0,-100.00,South,185,0.0,1.0,84,-99.99,,,0.00,,2013-02-22 06:01:00,
2013-02-21 23:11:00,23.0,19.0,-100.00,North,0,2.0,3.0,82,-99.99,,,0.00,,2013-02-22 06:11:00,
2013-02-21 23:21:00,23.0,19.0,-100.00,North,0,2.0,3.0,82,-99.99,,,0.00,,2013-02-22 06:21:00,
2013-02-21 23:31:00,23.0,19.0,-100.00,North,0,2.0,3.0,82,-99.99,,,0.00,,2013-02-22 06:31:00,
2013-02-21 23:52:00,22.0,12.0,-100.00,NNW,340,4.0,6.0,65,-99.99,,,0.00,,2013-02-22 06:52:00,